sensor_id;sensor_type;location;lat;lon;timestamp;pressure;altitude;pressure_sealevel;temperature;humidity
45050;BME280;61798;48.048;-1.928;2023-04-09T00:00:36;101342.72;;;5.79;100.00
45050;BME280;61798;48.048;-1.928;2023-04-09T00:02:42;101350.53;;;5.91;100.00
45050;BME280;61798;48.048;-1.928;2023-04-09T00:04:48;101354.47;;;5.87;100.00
45050;BME280;61798;48.048;-1.928;2023-04-09T00:06:54;101311.56;;;5.52;100.00
45050;BME280;61798;48.048;-1.928;2023-04-09T00:09:00;101359.94;;;5.75;100.00
45050;BME280;61798;48.048;-1.928;2023-04-09T00:11:06;101341.78;;;5.60;100.00
45050;BME280;61798;48.048;-1.928;2023-04-09T00:13:12;101358.56;;;5.71;100.00
45050;BME280;61798;48.048;-1.928;2023-04-09T00:15:18;101345.28;;;5.51;100.00
45050;BME280;61798;48.048;-1.928;2023-04-09T00:17:24;101349.91;;;5.49;100.00
45050;BME280;61798;48.048;-1.928;2023-04-09T00:19:30;101341.94;;;5.29;100.00
45050;BME280;61798;48.048;-1.928;2023-04-09T00:21:36;101308.09;;;5.11;100.00
45050;BME280;61798;48.048;-1.928;2023-04-09T00:23:42;101357.03;;;5.38;100.00
45050;BME280;61798;48.048;-1.928;2023-04-09T00:25:48;101319.69;;;5.10;100.00
45050;BME280;61798;48.048;-1.928;2023-04-09T00:27:55;101343.22;;;5.25;100.00
45050;BME280;61798;48.048;-1.928;2023-04-09T00:30:01;101305.28;;;5.03;100.00
45050;BME280;61798;48.048;-1.928;2023-04-09T00:32:07;101317.47;;;5.15;100.00
45050;BME280;61798;48.048;-1.928;2023-04-09T00:34:13;101308.66;;;5.05;100.00
45050;BME280;61798;48.048;-1.928;2023-04-09T00:36:19;101312.28;;;5.04;100.00
45050;BME280;61798;48.048;-1.928;2023-04-09T00:38:25;101331.03;;;5.12;100.00
45050;BME280;61798;48.048;-1.928;2023-04-09T00:40:31;101360.81;;;5.26;100.00
45050;BME280;61798;48.048;-1.928;2023-04-09T00:42:37;101335.78;;;5.08;100.00
45050;BME280;61798;48.048;-1.928;2023-04-09T00:44:43;101355.22;;;5.19;100.00
45050;BME280;61798;48.048;-1.928;2023-04-09T00:46:50;101355.09;;;5.21;100.00
45050;BME280;61798;48.048;-1.928;2023-04-09T00:48:56;101337.75;;;5.16;100.00
45050;BME280;61798;48.048;-1.928;2023-04-09T00:51:03;101314.78;;;4.95;100.00
45050;BME280;61798;48.048;-1.928;2023-04-09T00:53:09;101345.28;;;5.11;100.00
45050;BME280;61798;48.048;-1.928;2023-04-09T00:55:17;101310.03;;;4.99;100.00
45050;BME280;61798;48.048;-1.928;2023-04-09T00:57:23;101339.16;;;5.21;100.00
45050;BME280;61798;48.048;-1.928;2023-04-09T00:59:29;101304.44;;;4.92;100.00
45050;BME280;61798;48.048;-1.928;2023-04-09T01:01:36;101326.53;;;5.03;100.00
45050;BME280;61798;48.048;-1.928;2023-04-09T01:03:42;101323.47;;;4.97;100.00
45050;BME280;61798;48.048;-1.928;2023-04-09T01:12:58;101317.41;;;4.65;100.00
45050;BME280;61798;48.048;-1.928;2023-04-09T01:15:10;101330.25;;;4.70;100.00
45050;BME280;61798;48.048;-1.928;2023-04-09T01:17:24;101330.03;;;4.73;100.00
45050;BME280;61798;48.048;-1.928;2023-04-09T01:19:53;101322.06;;;4.73;100.00
45050;BME280;61798;48.048;-1.928;2023-04-09T01:22:04;101316.88;;;4.72;100.00
45050;BME280;61798;48.048;-1.928;2023-04-09T01:24:20;101324.00;;;4.71;100.00
45050;BME280;61798;48.048;-1.928;2023-04-09T01:29:02;101322.00;;;4.53;100.00
45050;BME280;61798;48.048;-1.928;2023-04-09T01:31:20;101310.91;;;4.38;100.00
45050;BME280;61798;48.048;-1.928;2023-04-09T01:33:30;101312.00;;;4.26;100.00
45050;BME280;61798;48.048;-1.928;2023-04-09T01:35:37;101310.94;;;4.07;100.00
45050;BME280;61798;48.048;-1.928;2023-04-09T01:37:43;101277.38;;;3.96;100.00
45050;BME280;61798;48.048;-1.928;2023-04-09T01:39:50;101309.03;;;4.19;100.00
45050;BME280;61798;48.048;-1.928;2023-04-09T01:41:56;101318.00;;;4.28;100.00
45050;BME280;61798;48.048;-1.928;2023-04-09T01:44:03;101314.09;;;4.22;100.00
45050;BME280;61798;48.048;-1.928;2023-04-09T01:46:10;101316.59;;;4.23;100.00
45050;BME280;61798;48.048;-1.928;2023-04-09T01:48:18;101316.00;;;4.20;100.00
45050;BME280;61798;48.048;-1.928;2023-04-09T01:50:25;101319.41;;;4.22;100.00
45050;BME280;61798;48.048;-1.928;2023-04-09T01:52:32;101287.41;;;3.92;100.00
45050;BME280;61798;48.048;-1.928;2023-04-09T01:54:37;101285.22;;;3.97;100.00
45050;BME280;61798;48.048;-1.928;2023-04-09T01:56:45;101272.66;;;3.99;100.00
45050;BME280;61798;48.048;-1.928;2023-04-09T01:58:52;101317.72;;;4.21;100.00
45050;BME280;61798;48.048;-1.928;2023-04-09T02:01:09;101315.41;;;4.38;100.00
45050;BME280;61798;48.048;-1.928;2023-04-09T02:03:23;101291.63;;;4.36;100.00
45050;BME280;61798;48.048;-1.928;2023-04-09T02:05:35;101285.47;;;4.26;100.00
45050;BME280;61798;48.048;-1.928;2023-04-09T02:07:44;101292.88;;;4.42;100.00
45050;BME280;61798;48.048;-1.928;2023-04-09T02:09:52;101295.97;;;4.37;100.00
45050;BME280;61798;48.048;-1.928;2023-04-09T02:12:03;101310.50;;;4.43;100.00
45050;BME280;61798;48.048;-1.928;2023-04-09T02:14:11;101285.31;;;4.17;100.00
45050;BME280;61798;48.048;-1.928;2023-04-09T02:16:17;101292.03;;;4.31;100.00
45050;BME280;61798;48.048;-1.928;2023-04-09T02:18:25;101299.03;;;4.42;100.00
45050;BME280;61798;48.048;-1.928;2023-04-09T02:20:34;101256.69;;;4.21;100.00
45050;BME280;61798;48.048;-1.928;2023-04-09T02:22:40;101291.97;;;4.63;100.00
45050;BME280;61798;48.048;-1.928;2023-04-09T02:24:46;101280.66;;;4.71;100.00
45050;BME280;61798;48.048;-1.928;2023-04-09T02:26:52;101292.97;;;4.82;100.00
45050;BME280;61798;48.048;-1.928;2023-04-09T02:28:58;101287.66;;;4.72;100.00
45050;BME280;61798;48.048;-1.928;2023-04-09T02:31:04;101266.66;;;4.59;100.00
45050;BME280;61798;48.048;-1.928;2023-04-09T02:33:10;101282.91;;;4.65;100.00
45050;BME280;61798;48.048;-1.928;2023-04-09T02:35:16;101272.53;;;4.52;100.00
45050;BME280;61798;48.048;-1.928;2023-04-09T02:37:22;101244.16;;;4.43;100.00
45050;BME280;61798;48.048;-1.928;2023-04-09T02:39:28;101286.66;;;4.63;100.00
45050;BME280;61798;48.048;-1.928;2023-04-09T02:41:34;101280.75;;;4.39;100.00
45050;BME280;61798;48.048;-1.928;2023-04-09T02:43:40;101288.69;;;4.39;100.00
45050;BME280;61798;48.048;-1.928;2023-04-09T02:45:46;101286.88;;;4.30;100.00
45050;BME280;61798;48.048;-1.928;2023-04-09T02:47:52;101267.72;;;4.26;100.00
45050;BME280;61798;48.048;-1.928;2023-04-09T02:49:58;101280.91;;;4.38;100.00
45050;BME280;61798;48.048;-1.928;2023-04-09T02:52:04;101293.72;;;4.42;100.00
45050;BME280;61798;48.048;-1.928;2023-04-09T02:54:10;101284.91;;;4.32;100.00
45050;BME280;61798;48.048;-1.928;2023-04-09T02:56:16;101284.75;;;4.23;100.00
45050;BME280;61798;48.048;-1.928;2023-04-09T02:58:22;101287.41;;;4.23;100.00
45050;BME280;61798;48.048;-1.928;2023-04-09T03:00:28;101285.81;;;4.11;100.00
45050;BME280;61798;48.048;-1.928;2023-04-09T03:02:34;101304.84;;;4.16;100.00
45050;BME280;61798;48.048;-1.928;2023-04-09T03:04:40;101304.00;;;4.16;100.00
45050;BME280;61798;48.048;-1.928;2023-04-09T03:06:46;101291.59;;;3.95;100.00
45050;BME280;61798;48.048;-1.928;2023-04-09T03:08:52;101269.88;;;3.69;100.00
45050;BME280;61798;48.048;-1.928;2023-04-09T03:10:58;101279.75;;;3.67;100.00
45050;BME280;61798;48.048;-1.928;2023-04-09T03:13:05;101284.38;;;3.65;100.00
45050;BME280;61798;48.048;-1.928;2023-04-09T03:15:11;101292.44;;;3.64;100.00
45050;BME280;61798;48.048;-1.928;2023-04-09T03:17:17;101248.50;;;3.40;100.00
45050;BME280;61798;48.048;-1.928;2023-04-09T03:19:23;101258.25;;;3.39;100.00
45050;BME280;61798;48.048;-1.928;2023-04-09T03:21:29;101252.09;;;3.38;100.00
45050;BME280;61798;48.048;-1.928;2023-04-09T03:23:35;101266.59;;;3.56;100.00
45050;BME280;61798;48.048;-1.928;2023-04-09T03:25:41;101246.00;;;3.38;100.00
45050;BME280;61798;48.048;-1.928;2023-04-09T03:27:47;101283.63;;;3.63;100.00
45050;BME280;61798;48.048;-1.928;2023-04-09T03:29:56;101285.06;;;3.67;100.00
45050;BME280;61798;48.048;-1.928;2023-04-09T03:32:02;101302.25;;;3.73;100.00
45050;BME280;61798;48.048;-1.928;2023-04-09T03:34:08;101257.38;;;3.50;100.00
45050;BME280;61798;48.048;-1.928;2023-04-09T03:36:14;101286.75;;;3.68;100.00
45050;BME280;61798;48.048;-1.928;2023-04-09T03:38:20;101268.00;;;3.60;100.00
45050;BME280;61798;48.048;-1.928;2023-04-09T03:40:26;101279.50;;;3.70;100.00
45050;BME280;61798;48.048;-1.928;2023-04-09T03:42:32;101254.81;;;3.70;100.00
45050;BME280;61798;48.048;-1.928;2023-04-09T03:44:39;101241.63;;;3.58;100.00
45050;BME280;61798;48.048;-1.928;2023-04-09T03:46:45;101285.81;;;3.79;100.00
45050;BME280;61798;48.048;-1.928;2023-04-09T03:48:51;101284.00;;;3.80;100.00
45050;BME280;61798;48.048;-1.928;2023-04-09T03:50:57;101290.50;;;3.66;100.00
45050;BME280;61798;48.048;-1.928;2023-04-09T03:53:03;101294.97;;;3.65;100.00
45050;BME280;61798;48.048;-1.928;2023-04-09T03:55:09;101291.84;;;3.60;100.00
45050;BME280;61798;48.048;-1.928;2023-04-09T03:57:15;101290.44;;;3.56;100.00
45050;BME280;61798;48.048;-1.928;2023-04-09T03:59:22;101289.75;;;3.54;100.00
45050;BME280;61798;48.048;-1.928;2023-04-09T04:01:28;101285.22;;;3.44;100.00
45050;BME280;61798;48.048;-1.928;2023-04-09T04:03:34;101273.91;;;3.42;100.00
45050;BME280;61798;48.048;-1.928;2023-04-09T04:05:41;101264.84;;;3.23;100.00
45050;BME280;61798;48.048;-1.928;2023-04-09T04:07:47;101263.44;;;3.41;100.00
45050;BME280;61798;48.048;-1.928;2023-04-09T04:09:53;101276.03;;;3.48;100.00
45050;BME280;61798;48.048;-1.928;2023-04-09T04:12:00;101264.53;;;3.38;100.00
45050;BME280;61798;48.048;-1.928;2023-04-09T04:14:06;101278.56;;;3.50;100.00
45050;BME280;61798;48.048;-1.928;2023-04-09T04:16:12;101251.66;;;3.33;100.00
45050;BME280;61798;48.048;-1.928;2023-04-09T04:18:19;101267.50;;;3.45;100.00
45050;BME280;61798;48.048;-1.928;2023-04-09T04:20:24;101264.00;;;3.44;100.00
45050;BME280;61798;48.048;-1.928;2023-04-09T04:22:32;101260.13;;;3.48;100.00
45050;BME280;61798;48.048;-1.928;2023-04-09T04:24:39;101277.19;;;3.56;100.00
45050;BME280;61798;48.048;-1.928;2023-04-09T04:26:45;101274.88;;;3.41;100.00
45050;BME280;61798;48.048;-1.928;2023-04-09T04:28:51;101262.66;;;3.28;100.00
45050;BME280;61798;48.048;-1.928;2023-04-09T04:30:57;101276.09;;;3.37;100.00
45050;BME280;61798;48.048;-1.928;2023-04-09T04:33:03;101289.09;;;3.40;100.00
45050;BME280;61798;48.048;-1.928;2023-04-09T04:35:09;101291.72;;;3.40;100.00
45050;BME280;61798;48.048;-1.928;2023-04-09T04:37:15;101247.78;;;3.16;100.00
45050;BME280;61798;48.048;-1.928;2023-04-09T04:39:20;101290.19;;;3.37;100.00
45050;BME280;61798;48.048;-1.928;2023-04-09T04:41:26;101234.59;;;3.04;100.00
45050;BME280;61798;48.048;-1.928;2023-04-09T04:43:34;101292.97;;;3.36;100.00
45050;BME280;61798;48.048;-1.928;2023-04-09T04:45:40;101297.94;;;3.29;100.00
45050;BME280;61798;48.048;-1.928;2023-04-09T04:47:45;101277.38;;;3.21;100.00
45050;BME280;61798;48.048;-1.928;2023-04-09T04:49:52;101289.78;;;3.21;100.00
45050;BME280;61798;48.048;-1.928;2023-04-09T04:51:57;101245.84;;;2.96;100.00
45050;BME280;61798;48.048;-1.928;2023-04-09T04:54:03;101293.66;;;3.16;100.00
45050;BME280;61798;48.048;-1.928;2023-04-09T04:56:13;101296.38;;;3.26;100.00
45050;BME280;61798;48.048;-1.928;2023-04-09T04:58:20;101278.03;;;3.13;100.00
45050;BME280;61798;48.048;-1.928;2023-04-09T05:00:26;101268.38;;;3.12;100.00
45050;BME280;61798;48.048;-1.928;2023-04-09T05:02:32;101262.41;;;2.99;100.00
45050;BME280;61798;48.048;-1.928;2023-04-09T05:04:38;101282.75;;;3.10;100.00
45050;BME280;61798;48.048;-1.928;2023-04-09T05:06:44;101291.13;;;3.15;100.00
45050;BME280;61798;48.048;-1.928;2023-04-09T05:08:50;101285.25;;;3.11;100.00
45050;BME280;61798;48.048;-1.928;2023-04-09T05:10:56;101290.53;;;3.11;100.00
45050;BME280;61798;48.048;-1.928;2023-04-09T05:13:02;101296.47;;;3.03;100.00
45050;BME280;61798;48.048;-1.928;2023-04-09T05:15:08;101303.13;;;2.98;100.00
45050;BME280;61798;48.048;-1.928;2023-04-09T05:17:14;101279.53;;;2.61;100.00
45050;BME280;61798;48.048;-1.928;2023-04-09T05:19:21;101293.38;;;2.53;100.00
45050;BME280;61798;48.048;-1.928;2023-04-09T05:21:27;101268.50;;;2.33;100.00
45050;BME280;61798;48.048;-1.928;2023-04-09T05:23:33;101301.91;;;2.57;100.00
45050;BME280;61798;48.048;-1.928;2023-04-09T05:25:38;101267.03;;;2.52;100.00
45050;BME280;61798;48.048;-1.928;2023-04-09T05:27:44;101295.59;;;2.81;100.00
45050;BME280;61798;48.048;-1.928;2023-04-09T05:29:50;101303.13;;;2.98;100.00
45050;BME280;61798;48.048;-1.928;2023-04-09T05:31:56;101283.00;;;3.06;100.00
45050;BME280;61798;48.048;-1.928;2023-04-09T05:34:02;101306.69;;;3.08;100.00
45050;BME280;61798;48.048;-1.928;2023-04-09T05:36:14;101280.84;;;3.00;100.00
45050;BME280;61798;48.048;-1.928;2023-04-09T05:38:21;101295.59;;;3.14;100.00
45050;BME280;61798;48.048;-1.928;2023-04-09T05:40:27;101234.34;;;2.86;100.00
45050;BME280;61798;48.048;-1.928;2023-04-09T05:42:33;101253.41;;;3.01;100.00
45050;BME280;61798;48.048;-1.928;2023-04-09T05:44:39;101292.31;;;3.22;100.00
45050;BME280;61798;48.048;-1.928;2023-04-09T05:46:45;101303.25;;;3.29;100.00
45050;BME280;61798;48.048;-1.928;2023-04-09T05:48:51;101283.00;;;3.06;100.00
45050;BME280;61798;48.048;-1.928;2023-04-09T05:50:57;101287.19;;;3.09;100.00
45050;BME280;61798;48.048;-1.928;2023-04-09T05:53:03;101301.72;;;3.15;100.00
45050;BME280;61798;48.048;-1.928;2023-04-09T05:55:09;101267.81;;;3.09;100.00
45050;BME280;61798;48.048;-1.928;2023-04-09T05:57:15;101303.88;;;3.43;100.00
45050;BME280;61798;48.048;-1.928;2023-04-09T05:59:21;101281.25;;;3.17;100.00
45050;BME280;61798;48.048;-1.928;2023-04-09T06:01:27;101283.97;;;3.05;100.00
45050;BME280;61798;48.048;-1.928;2023-04-09T06:03:34;101318.97;;;3.31;100.00
45050;BME280;61798;48.048;-1.928;2023-04-09T06:05:40;101331.34;;;3.42;100.00
45050;BME280;61798;48.048;-1.928;2023-04-09T06:07:46;101293.22;;;3.00;100.00
45050;BME280;61798;48.048;-1.928;2023-04-09T06:09:54;101332.31;;;3.08;100.00
45050;BME280;61798;48.048;-1.928;2023-04-09T06:12:01;101330.16;;;3.13;100.00
45050;BME280;61798;48.048;-1.928;2023-04-09T06:14:10;101342.50;;;3.24;100.00
45050;BME280;61798;48.048;-1.928;2023-04-09T06:16:22;101344.78;;;3.28;100.00
45050;BME280;61798;48.048;-1.928;2023-04-09T06:18:29;101333.09;;;2.98;100.00
45050;BME280;61798;48.048;-1.928;2023-04-09T06:20:36;101342.91;;;3.08;100.00
45050;BME280;61798;48.048;-1.928;2023-04-09T06:22:43;101319.72;;;3.00;100.00
45050;BME280;61798;48.048;-1.928;2023-04-09T06:24:50;101296.78;;;2.89;100.00
45050;BME280;61798;48.048;-1.928;2023-04-09T06:26:58;101346.94;;;3.23;100.00
45050;BME280;61798;48.048;-1.928;2023-04-09T06:29:05;101318.44;;;3.15;100.00
45050;BME280;61798;48.048;-1.928;2023-04-09T06:31:12;101326.88;;;3.21;100.00
45050;BME280;61798;48.048;-1.928;2023-04-09T06:33:20;101329.47;;;3.32;100.00
45050;BME280;61798;48.048;-1.928;2023-04-09T06:35:28;101323.25;;;3.43;100.00
45050;BME280;61798;48.048;-1.928;2023-04-09T06:37:35;101330.47;;;3.53;100.00
45050;BME280;61798;48.048;-1.928;2023-04-09T06:39:42;101330.91;;;3.58;100.00
45050;BME280;61798;48.048;-1.928;2023-04-09T06:41:48;101293.84;;;3.46;100.00
45050;BME280;61798;48.048;-1.928;2023-04-09T06:43:55;101298.56;;;3.43;100.00
45050;BME280;61798;48.048;-1.928;2023-04-09T06:46:01;101334.50;;;3.78;100.00
45050;BME280;61798;48.048;-1.928;2023-04-09T06:48:07;101297.63;;;3.65;100.00
45050;BME280;61798;48.048;-1.928;2023-04-09T06:50:13;101316.66;;;3.80;100.00
45050;BME280;61798;48.048;-1.928;2023-04-09T06:52:20;101340.75;;;3.99;100.00
45050;BME280;61798;48.048;-1.928;2023-04-09T06:54:26;101326.81;;;3.97;100.00
45050;BME280;61798;48.048;-1.928;2023-04-09T06:56:33;101323.50;;;4.05;100.00
45050;BME280;61798;48.048;-1.928;2023-04-09T06:58:41;101323.34;;;4.06;100.00
45050;BME280;61798;48.048;-1.928;2023-04-09T07:00:48;101316.28;;;4.17;100.00
45050;BME280;61798;48.048;-1.928;2023-04-09T07:02:54;101300.19;;;4.08;100.00
45050;BME280;61798;48.048;-1.928;2023-04-09T07:05:00;101326.13;;;4.36;100.00
45050;BME280;61798;48.048;-1.928;2023-04-09T07:07:07;101336.69;;;4.58;100.00
45050;BME280;61798;48.048;-1.928;2023-04-09T07:09:14;101327.31;;;4.53;100.00
45050;BME280;61798;48.048;-1.928;2023-04-09T07:11:22;101342.16;;;4.76;100.00
45050;BME280;61798;48.048;-1.928;2023-04-09T07:13:28;101328.84;;;4.66;100.00
45050;BME280;61798;48.048;-1.928;2023-04-09T07:15:34;101329.59;;;4.78;100.00
45050;BME280;61798;48.048;-1.928;2023-04-09T07:17:40;101293.22;;;4.59;100.00
45050;BME280;61798;48.048;-1.928;2023-04-09T07:19:46;101317.31;;;4.87;100.00
45050;BME280;61798;48.048;-1.928;2023-04-09T07:21:52;101315.50;;;4.88;100.00
45050;BME280;61798;48.048;-1.928;2023-04-09T07:23:59;101328.22;;;5.04;100.00
45050;BME280;61798;48.048;-1.928;2023-04-09T07:26:05;101322.19;;;5.22;100.00
45050;BME280;61798;48.048;-1.928;2023-04-09T07:28:12;101318.88;;;5.20;100.00
45050;BME280;61798;48.048;-1.928;2023-04-09T07:30:18;101320.53;;;5.31;100.00
45050;BME280;61798;48.048;-1.928;2023-04-09T07:32:25;101279.28;;;5.06;100.00
45050;BME280;61798;48.048;-1.928;2023-04-09T07:34:33;101320.81;;;5.37;100.00
45050;BME280;61798;48.048;-1.928;2023-04-09T07:36:39;101271.47;;;5.25;100.00
45050;BME280;61798;48.048;-1.928;2023-04-09T07:38:47;101270.88;;;5.31;100.00
45050;BME280;61798;48.048;-1.928;2023-04-09T07:40:54;101293.22;;;5.58;100.00
45050;BME280;61798;48.048;-1.928;2023-04-09T07:43:02;101308.03;;;5.71;100.00
45050;BME280;61798;48.048;-1.928;2023-04-09T07:45:09;101282.03;;;5.55;100.00
45050;BME280;61798;48.048;-1.928;2023-04-09T07:47:15;101267.88;;;5.64;100.00
45050;BME280;61798;48.048;-1.928;2023-04-09T07:49:21;101319.34;;;6.21;100.00
45050;BME280;61798;48.048;-1.928;2023-04-09T07:51:27;101292.53;;;6.05;100.00
45050;BME280;61798;48.048;-1.928;2023-04-09T07:53:34;101300.69;;;6.31;100.00
45050;BME280;61798;48.048;-1.928;2023-04-09T07:55:40;101272.88;;;6.06;100.00
45050;BME280;61798;48.048;-1.928;2023-04-09T07:57:46;101288.06;;;6.33;100.00
45050;BME280;61798;48.048;-1.928;2023-04-09T07:59:53;101305.47;;;6.56;100.00
45050;BME280;61798;48.048;-1.928;2023-04-09T08:02:01;101301.63;;;6.69;100.00
45050;BME280;61798;48.048;-1.928;2023-04-09T08:04:07;101305.03;;;7.16;100.00
45050;BME280;61798;48.048;-1.928;2023-04-09T08:06:15;101297.50;;;7.11;100.00
45050;BME280;61798;48.048;-1.928;2023-04-09T08:08:21;101309.81;;;7.30;100.00
45050;BME280;61798;48.048;-1.928;2023-04-09T08:10:27;101309.81;;;7.76;100.00
45050;BME280;61798;48.048;-1.928;2023-04-09T08:12:34;101302.41;;;7.69;100.00
45050;BME280;61798;48.048;-1.928;2023-04-09T08:14:42;101270.28;;;7.26;100.00
45050;BME280;61798;48.048;-1.928;2023-04-09T08:16:48;101278.00;;;7.56;100.00
45050;BME280;61798;48.048;-1.928;2023-04-09T08:18:55;101285.72;;;7.94;100.00
45050;BME280;61798;48.048;-1.928;2023-04-09T08:21:03;101294.06;;;8.34;100.00
45050;BME280;61798;48.048;-1.928;2023-04-09T08:23:11;101293.66;;;8.21;100.00
45050;BME280;61798;48.048;-1.928;2023-04-09T08:25:18;101257.94;;;8.13;100.00
45050;BME280;61798;48.048;-1.928;2023-04-09T08:27:24;101276.50;;;8.23;100.00
45050;BME280;61798;48.048;-1.928;2023-04-09T08:29:30;101268.47;;;8.67;100.00
45050;BME280;61798;48.048;-1.928;2023-04-09T08:31:37;101248.63;;;8.26;100.00
45050;BME280;61798;48.048;-1.928;2023-04-09T08:33:43;101251.34;;;8.34;100.00
45050;BME280;61798;48.048;-1.928;2023-04-09T08:35:50;101270.47;;;8.73;100.00
45050;BME280;61798;48.048;-1.928;2023-04-09T08:37:58;101269.56;;;8.56;100.00
45050;BME280;61798;48.048;-1.928;2023-04-09T08:40:06;101249.78;;;9.09;100.00
45050;BME280;61798;48.048;-1.928;2023-04-09T08:42:13;101245.78;;;8.80;100.00
45050;BME280;61798;48.048;-1.928;2023-04-09T08:44:25;101257.09;;;9.24;100.00
45050;BME280;61798;48.048;-1.928;2023-04-09T08:46:35;101247.91;;;9.35;100.00
45050;BME280;61798;48.048;-1.928;2023-04-09T08:48:45;101226.34;;;9.36;100.00
45050;BME280;61798;48.048;-1.928;2023-04-09T08:50:52;101240.69;;;9.44;100.00
45050;BME280;61798;48.048;-1.928;2023-04-09T08:53:01;101211.81;;;9.22;100.00
45050;BME280;61798;48.048;-1.928;2023-04-09T08:55:10;101234.84;;;9.48;100.00
45050;BME280;61798;48.048;-1.928;2023-04-09T08:57:16;101219.59;;;9.57;100.00
45050;BME280;61798;48.048;-1.928;2023-04-09T08:59:22;101234.91;;;9.80;100.00
45050;BME280;61798;48.048;-1.928;2023-04-09T09:01:30;101227.81;;;9.96;100.00
45050;BME280;61798;48.048;-1.928;2023-04-09T09:03:52;101208.81;;;9.82;100.00
45050;BME280;61798;48.048;-1.928;2023-04-09T09:06:01;101205.13;;;9.83;100.00
45050;BME280;61798;48.048;-1.928;2023-04-09T09:08:21;101208.72;;;10.31;100.00
45050;BME280;61798;48.048;-1.928;2023-04-09T09:10:44;101204.94;;;10.49;100.00
45050;BME280;61798;48.048;-1.928;2023-04-09T09:12:51;101208.16;;;10.68;100.00
45050;BME280;61798;48.048;-1.928;2023-04-09T09:14:58;101167.47;;;10.41;100.00
45050;BME280;61798;48.048;-1.928;2023-04-09T09:17:06;101189.84;;;10.56;100.00
45050;BME280;61798;48.048;-1.928;2023-04-09T09:19:40;101213.25;;;10.86;100.00
45050;BME280;61798;48.048;-1.928;2023-04-09T09:21:54;101215.41;;;11.06;100.00
45050;BME280;61798;48.048;-1.928;2023-04-09T09:24:15;101201.13;;;10.91;100.00
45050;BME280;61798;48.048;-1.928;2023-04-09T09:26:25;101211.84;;;11.29;100.00
45050;BME280;61798;48.048;-1.928;2023-04-09T09:28:33;101192.31;;;11.36;100.00
45050;BME280;61798;48.048;-1.928;2023-04-09T09:30:42;101188.06;;;11.57;100.00
45050;BME280;61798;48.048;-1.928;2023-04-09T09:33:10;101200.91;;;11.77;100.00
45050;BME280;61798;48.048;-1.928;2023-04-09T09:35:17;101199.22;;;11.76;100.00
45050;BME280;61798;48.048;-1.928;2023-04-09T09:37:29;101197.56;;;11.74;100.00
45050;BME280;61798;48.048;-1.928;2023-04-09T09:39:42;101187.63;;;11.90;100.00
45050;BME280;61798;48.048;-1.928;2023-04-09T09:42:06;101199.66;;;11.94;100.00
45050;BME280;61798;48.048;-1.928;2023-04-09T09:44:30;101194.06;;;12.11;100.00
45050;BME280;61798;48.048;-1.928;2023-04-09T09:46:38;101146.81;;;11.80;100.00
45050;BME280;61798;48.048;-1.928;2023-04-09T09:48:45;101170.78;;;11.97;100.00
45050;BME280;61798;48.048;-1.928;2023-04-09T09:50:52;101191.25;;;11.98;100.00
45050;BME280;61798;48.048;-1.928;2023-04-09T09:53:08;101185.00;;;12.50;100.00
45050;BME280;61798;48.048;-1.928;2023-04-09T09:55:16;101164.66;;;12.98;100.00
45050;BME280;61798;48.048;-1.928;2023-04-09T09:57:24;101165.63;;;12.83;100.00
45050;BME280;61798;48.048;-1.928;2023-04-09T09:59:36;101154.41;;;12.79;100.00
45050;BME280;61798;48.048;-1.928;2023-04-09T10:01:44;101189.09;;;12.96;100.00
45050;BME280;61798;48.048;-1.928;2023-04-09T10:03:51;101171.75;;;13.06;100.00
45050;BME280;61798;48.048;-1.928;2023-04-09T10:06:00;101188.34;;;12.81;100.00
45050;BME280;61798;48.048;-1.928;2023-04-09T10:08:09;101182.59;;;13.13;100.00
45050;BME280;61798;48.048;-1.928;2023-04-09T10:10:17;101163.88;;;12.97;100.00
45050;BME280;61798;48.048;-1.928;2023-04-09T10:12:24;101153.16;;;13.04;100.00
45050;BME280;61798;48.048;-1.928;2023-04-09T10:14:33;101165.91;;;12.95;100.00
45050;BME280;61798;48.048;-1.928;2023-04-09T10:16:42;101181.50;;;13.07;100.00
45050;BME280;61798;48.048;-1.928;2023-04-09T10:18:49;101153.06;;;13.62;100.00
45050;BME280;61798;48.048;-1.928;2023-04-09T10:21:27;101168.69;;;13.45;100.00
45050;BME280;61798;48.048;-1.928;2023-04-09T10:23:42;101161.72;;;13.57;100.00
45050;BME280;61798;48.048;-1.928;2023-04-09T10:25:50;101160.94;;;13.28;100.00
45050;BME280;61798;48.048;-1.928;2023-04-09T10:28:01;101167.09;;;13.57;100.00
45050;BME280;61798;48.048;-1.928;2023-04-09T10:30:09;101151.91;;;13.42;100.00
45050;BME280;61798;48.048;-1.928;2023-04-09T10:32:20;101155.44;;;13.50;100.00
45050;BME280;61798;48.048;-1.928;2023-04-09T10:34:34;101160.94;;;13.63;100.00
45050;BME280;61798;48.048;-1.928;2023-04-09T10:36:59;101153.19;;;13.96;100.00
45050;BME280;61798;48.048;-1.928;2023-04-09T10:39:14;101148.81;;;13.95;100.00
45050;BME280;61798;48.048;-1.928;2023-04-09T10:41:27;101132.00;;;13.86;100.00
45050;BME280;61798;48.048;-1.928;2023-04-09T10:43:38;101118.81;;;14.12;100.00
45050;BME280;61798;48.048;-1.928;2023-04-09T10:45:47;101154.69;;;14.12;100.00
45050;BME280;61798;48.048;-1.928;2023-04-09T10:47:59;101146.59;;;14.26;100.00
45050;BME280;61798;48.048;-1.928;2023-04-09T10:50:26;101126.69;;;14.20;100.00
45050;BME280;61798;48.048;-1.928;2023-04-09T10:52:33;101146.81;;;14.24;100.00
45050;BME280;61798;48.048;-1.928;2023-04-09T10:54:43;101129.59;;;14.46;100.00
45050;BME280;61798;48.048;-1.928;2023-04-09T10:57:09;101149.94;;;14.69;100.00
45050;BME280;61798;48.048;-1.928;2023-04-09T10:59:17;101123.81;;;14.63;100.00
45050;BME280;61798;48.048;-1.928;2023-04-09T11:01:24;101127.53;;;14.62;100.00
45050;BME280;61798;48.048;-1.928;2023-04-09T11:03:37;101111.97;;;14.43;100.00
45050;BME280;61798;48.048;-1.928;2023-04-09T11:06:01;101093.31;;;14.48;100.00
45050;BME280;61798;48.048;-1.928;2023-04-09T11:08:12;101120.91;;;14.92;100.00